sensor_id;sensor_type;location;lat;lon;timestamp;P1;P2;P0
69746;PMS7003;57018;50.278;19.134;2024-03-22T00:00:35;55.33;43.67;27.67
69746;PMS7003;57018;50.278;19.134;2024-03-22T00:03:05;51.00;41.67;27.67
69746;PMS7003;57018;50.278;19.134;2024-03-22T00:05:35;50.00;39.00;26.00
69746;PMS7003;57018;50.278;19.134;2024-03-22T00:08:05;47.50;39.00;25.00
69746;PMS7003;57018;50.278;19.134;2024-03-22T00:10:36;48.00;40.00;25.00
69746;PMS7003;57018;50.278;19.134;2024-03-22T00:13:06;44.50;38.50;25.00
69746;PMS7003;57018;50.278;19.134;2024-03-22T00:15:36;45.00;37.00;24.00
69746;PMS7003;57018;50.278;19.134;2024-03-22T00:18:06;43.00;34.00;24.00
69746;PMS7003;57018;50.278;19.134;2024-03-22T00:20:36;52.00;40.00;25.00
69746;PMS7003;57018;50.278;19.134;2024-03-22T00:23:06;47.33;38.00;24.67
69746;PMS7003;57018;50.278;19.134;2024-03-22T00:25:36;41.00;37.00;25.00
69746;PMS7003;57018;50.278;19.134;2024-03-22T00:28:06;49.00;39.00;25.00
69746;PMS7003;57018;50.278;19.134;2024-03-22T00:30:35;45.00;35.50;22.50
69746;PMS7003;57018;50.278;19.134;2024-03-22T00:33:05;45.00;37.00;24.00
69746;PMS7003;57018;50.278;19.134;2024-03-22T00:38:04;44.00;36.00;24.00
69746;PMS7003;57018;50.278;19.134;2024-03-22T00:40:34;47.00;37.00;24.00
69746;PMS7003;57018;50.278;19.134;2024-03-22T00:43:03;45.00;38.00;24.00
69746;PMS7003;57018;50.278;19.134;2024-03-22T00:45:34;46.75;37.00;24.00
69746;PMS7003;57018;50.278;19.134;2024-03-22T00:48:05;49.00;38.50;24.50
69746;PMS7003;57018;50.278;19.134;2024-03-22T00:50:35;50.00;40.00;25.00
69746;PMS7003;57018;50.278;19.134;2024-03-22T00:53:05;52.00;42.00;25.00
69746;PMS7003;57018;50.278;19.134;2024-03-22T00:55:36;51.67;40.67;27.33
69746;PMS7003;57018;50.278;19.134;2024-03-22T00:58:06;52.00;40.00;24.00
69746;PMS7003;57018;50.278;19.134;2024-03-22T01:00:36;49.00;40.00;25.00
69746;PMS7003;57018;50.278;19.134;2024-03-22T01:03:07;50.67;40.67;25.00
69746;PMS7003;57018;50.278;19.134;2024-03-22T01:05:37;57.50;44.00;28.50
69746;PMS7003;57018;50.278;19.134;2024-03-22T01:08:09;50.67;40.00;25.00
69746;PMS7003;57018;50.278;19.134;2024-03-22T01:10:39;47.00;38.50;24.50
69746;PMS7003;57018;50.278;19.134;2024-03-22T01:13:09;52.50;41.50;25.00
69746;PMS7003;57018;50.278;19.134;2024-03-22T01:15:39;50.00;41.00;27.00
69746;PMS7003;57018;50.278;19.134;2024-03-22T01:18:09;46.00;39.00;25.00
69746;PMS7003;57018;50.278;19.134;2024-03-22T01:20:39;50.00;40.50;24.50
69746;PMS7003;57018;50.278;19.134;2024-03-22T01:23:09;52.00;41.00;26.00
69746;PMS7003;57018;50.278;19.134;2024-03-22T01:25:39;53.00;43.50;27.50
69746;PMS7003;57018;50.278;19.134;2024-03-22T01:28:09;51.50;41.50;27.00
69746;PMS7003;57018;50.278;19.134;2024-03-22T01:30:39;50.50;41.00;27.00
69746;PMS7003;57018;50.278;19.134;2024-03-22T01:33:08;56.00;44.00;27.50
69746;PMS7003;57018;50.278;19.134;2024-03-22T01:35:38;54.00;44.00;28.50
69746;PMS7003;57018;50.278;19.134;2024-03-22T01:38:08;55.50;43.00;28.00
69746;PMS7003;57018;50.278;19.134;2024-03-22T01:40:38;52.00;44.00;28.00
69746;PMS7003;57018;50.278;19.134;2024-03-22T01:43:08;50.00;42.00;27.50
69746;PMS7003;57018;50.278;19.134;2024-03-22T01:45:38;55.00;44.50;28.50
69746;PMS7003;57018;50.278;19.134;2024-03-22T01:48:08;50.00;42.00;28.50
69746;PMS7003;57018;50.278;19.134;2024-03-22T01:50:39;54.50;44.50;29.00
69746;PMS7003;57018;50.278;19.134;2024-03-22T01:53:10;56.00;47.00;29.00
69746;PMS7003;57018;50.278;19.134;2024-03-22T01:55:40;58.00;47.00;30.00
69746;PMS7003;57018;50.278;19.134;2024-03-22T01:58:10;51.00;43.00;28.00
69746;PMS7003;57018;50.278;19.134;2024-03-22T02:00:41;54.00;45.00;30.00
69746;PMS7003;57018;50.278;19.134;2024-03-22T02:03:11;54.00;44.00;29.00
69746;PMS7003;57018;50.278;19.134;2024-03-22T02:05:41;52.00;43.00;28.00
69746;PMS7003;57018;50.278;19.134;2024-03-22T02:08:11;53.75;42.75;27.75
69746;PMS7003;57018;50.278;19.134;2024-03-22T02:10:41;45.00;38.33;26.00
69746;PMS7003;57018;50.278;19.134;2024-03-22T02:13:11;56.00;42.00;28.00
69746;PMS7003;57018;50.278;19.134;2024-03-22T02:15:41;51.50;42.00;28.00
69746;PMS7003;57018;50.278;19.134;2024-03-22T02:18:11;49.00;41.50;26.00
69746;PMS7003;57018;50.278;19.134;2024-03-22T02:20:41;51.00;39.50;25.00
69746;PMS7003;57018;50.278;19.134;2024-03-22T02:23:11;49.00;40.50;27.00
69746;PMS7003;57018;50.278;19.134;2024-03-22T02:25:41;50.00;40.33;27.00
69746;PMS7003;57018;50.278;19.134;2024-03-22T02:28:11;46.00;40.00;24.00
69746;PMS7003;57018;50.278;19.134;2024-03-22T02:33:09;47.00;38.50;25.00
69746;PMS7003;57018;50.278;19.134;2024-03-22T02:35:39;48.00;38.00;25.00
69746;PMS7003;57018;50.278;19.134;2024-03-22T02:38:09;48.00;39.00;24.00
69746;PMS7003;57018;50.278;19.134;2024-03-22T02:40:42;51.00;39.50;25.00
69746;PMS7003;57018;50.278;19.134;2024-03-22T02:43:14;49.00;41.00;25.00
69746;PMS7003;57018;50.278;19.134;2024-03-22T02:45:45;43.50;37.00;23.00
69746;PMS7003;57018;50.278;19.134;2024-03-22T02:48:16;45.00;35.00;22.00
69746;PMS7003;57018;50.278;19.134;2024-03-22T02:50:46;48.33;35.33;23.33
69746;PMS7003;57018;50.278;19.134;2024-03-22T02:53:16;43.50;35.50;22.50
69746;PMS7003;57018;50.278;19.134;2024-03-22T02:55:46;40.00;34.00;21.50
69746;PMS7003;57018;50.278;19.134;2024-03-22T02:58:16;42.67;36.33;23.33
69746;PMS7003;57018;50.278;19.134;2024-03-22T03:00:48;42.00;35.50;21.50
69746;PMS7003;57018;50.278;19.134;2024-03-22T03:03:18;41.00;35.50;22.00
69746;PMS7003;57018;50.278;19.134;2024-03-22T03:05:50;36.00;33.00;22.00
69746;PMS7003;57018;50.278;19.134;2024-03-22T03:08:21;44.00;35.50;23.00
69746;PMS7003;57018;50.278;19.134;2024-03-22T03:10:51;40.50;35.00;22.00
69746;PMS7003;57018;50.278;19.134;2024-03-22T03:13:20;41.00;35.00;23.00
69746;PMS7003;57018;50.278;19.134;2024-03-22T03:15:50;44.50;35.00;22.00
69746;PMS7003;57018;50.278;19.134;2024-03-22T03:18:20;42.33;35.00;23.67
69746;PMS7003;57018;50.278;19.134;2024-03-22T03:20:50;38.00;35.00;22.00
69746;PMS7003;57018;50.278;19.134;2024-03-22T03:23:20;37.00;35.00;21.00
69746;PMS7003;57018;50.278;19.134;2024-03-22T03:25:50;41.00;35.00;23.00
69746;PMS7003;57018;50.278;19.134;2024-03-22T03:28:20;40.00;35.00;22.00
69746;PMS7003;57018;50.278;19.134;2024-03-22T03:30:53;38.00;31.00;21.00
69746;PMS7003;57018;50.278;19.134;2024-03-22T03:33:22;43.50;36.00;23.00
69746;PMS7003;57018;50.278;19.134;2024-03-22T03:35:52;40.00;35.00;21.50
69746;PMS7003;57018;50.278;19.134;2024-03-22T03:38:22;36.00;32.00;21.00
69746;PMS7003;57018;50.278;19.134;2024-03-22T03:40:53;47.50;38.00;22.00
69746;PMS7003;57018;50.278;19.134;2024-03-22T03:43:23;43.50;35.00;22.00
69746;PMS7003;57018;50.278;19.134;2024-03-22T03:45:53;47.50;36.50;24.00
69746;PMS7003;57018;50.278;19.134;2024-03-22T03:48:23;42.33;36.00;23.33
69746;PMS7003;57018;50.278;19.134;2024-03-22T03:53:22;42.00;36.00;25.00
69746;PMS7003;57018;50.278;19.134;2024-03-22T03:55:52;43.00;36.00;24.00
69746;PMS7003;57018;50.278;19.134;2024-03-22T03:58:22;45.00;38.00;24.00
69746;PMS7003;57018;50.278;19.134;2024-03-22T04:00:55;41.50;35.50;22.00
69746;PMS7003;57018;50.278;19.134;2024-03-22T04:03:25;42.00;35.00;23.00
69746;PMS7003;57018;50.278;19.134;2024-03-22T04:05:57;45.00;37.00;23.50
69746;PMS7003;57018;50.278;19.134;2024-03-22T04:08:29;43.00;35.00;23.00
69746;PMS7003;57018;50.278;19.134;2024-03-22T04:10:59;44.50;38.00;23.00
69746;PMS7003;57018;50.278;19.134;2024-03-22T04:13:30;44.00;37.00;23.50
69746;PMS7003;57018;50.278;19.134;2024-03-22T04:16:00;47.50;38.00;23.00
69746;PMS7003;57018;50.278;19.134;2024-03-22T04:18:30;33.50;31.50;20.00
69746;PMS7003;57018;50.278;19.134;2024-03-22T04:21:00;48.00;36.00;21.50
69746;PMS7003;57018;50.278;19.134;2024-03-22T04:23:29;39.00;35.00;20.00
69746;PMS7003;57018;50.278;19.134;2024-03-22T04:25:59;39.00;34.00;21.00
69746;PMS7003;57018;50.278;19.134;2024-03-22T04:28:31;36.00;32.00;21.00
69746;PMS7003;57018;50.278;19.134;2024-03-22T04:31:08;36.00;34.00;20.00
69746;PMS7003;57018;50.278;19.134;2024-03-22T04:33:38;35.00;32.00;20.50
69746;PMS7003;57018;50.278;19.134;2024-03-22T04:36:08;36.33;32.67;20.67
69746;PMS7003;57018;50.278;19.134;2024-03-22T04:41:06;33.00;32.00;21.00
69746;PMS7003;57018;50.278;19.134;2024-03-22T04:43:36;32.00;31.00;20.50
69746;PMS7003;57018;50.278;19.134;2024-03-22T04:46:06;39.67;34.00;21.67
69746;PMS7003;57018;50.278;19.134;2024-03-22T04:48:36;28.50;27.50;17.50
69746;PMS7003;57018;50.278;19.134;2024-03-22T04:51:07;32.50;31.00;21.50
69746;PMS7003;57018;50.278;19.134;2024-03-22T04:53:39;32.00;32.00;21.00
69746;PMS7003;57018;50.278;19.134;2024-03-22T04:56:10;44.00;34.67;22.67
69746;PMS7003;57018;50.278;19.134;2024-03-22T04:58:40;40.00;35.00;21.33
69746;PMS7003;57018;50.278;19.134;2024-03-22T05:01:10;47.50;37.50;25.00
69746;PMS7003;57018;50.278;19.134;2024-03-22T05:03:40;42.50;37.00;23.50
69746;PMS7003;57018;50.278;19.134;2024-03-22T05:06:10;39.00;35.00;22.00
69746;PMS7003;57018;50.278;19.134;2024-03-22T05:08:40;37.00;33.50;21.50
69746;PMS7003;57018;50.278;19.134;2024-03-22T05:11:10;46.00;37.50;23.00
69746;PMS7003;57018;50.278;19.134;2024-03-22T05:13:39;48.00;36.00;22.00
69746;PMS7003;57018;50.278;19.134;2024-03-22T05:16:09;44.00;39.00;23.00
69746;PMS7003;57018;50.278;19.134;2024-03-22T05:18:39;48.00;39.00;25.00
69746;PMS7003;57018;50.278;19.134;2024-03-22T05:21:10;52.00;41.00;27.00
69746;PMS7003;57018;50.278;19.134;2024-03-22T05:23:40;50.33;40.00;25.00
69746;PMS7003;57018;50.278;19.134;2024-03-22T05:26:10;54.50;42.50;27.50
69746;PMS7003;57018;50.278;19.134;2024-03-22T05:28:40;51.00;42.50;26.50
69746;PMS7003;57018;50.278;19.134;2024-03-22T05:31:09;59.00;47.00;30.00
69746;PMS7003;57018;50.278;19.134;2024-03-22T05:33:39;52.00;43.00;28.00
69746;PMS7003;57018;50.278;19.134;2024-03-22T05:36:09;62.00;46.00;30.00
69746;PMS7003;57018;50.278;19.134;2024-03-22T05:38:39;53.00;43.00;25.00
69746;PMS7003;57018;50.278;19.134;2024-03-22T05:41:09;48.00;39.50;24.50
69746;PMS7003;57018;50.278;19.134;2024-03-22T05:43:39;41.50;36.00;24.00
69746;PMS7003;57018;50.278;19.134;2024-03-22T05:46:09;48.00;38.00;23.00
69746;PMS7003;57018;50.278;19.134;2024-03-22T05:48:39;46.50;39.00;24.50
69746;PMS7003;57018;50.278;19.134;2024-03-22T05:51:09;50.00;37.50;24.00
69746;PMS7003;57018;50.278;19.134;2024-03-22T05:53:39;46.00;37.00;24.00
69746;PMS7003;57018;50.278;19.134;2024-03-22T05:56:09;52.50;40.00;24.50
69746;PMS7003;57018;50.278;19.134;2024-03-22T05:58:39;41.67;34.67;21.00
69746;PMS7003;57018;50.278;19.134;2024-03-22T06:01:09;39.00;32.33;20.67
69746;PMS7003;57018;50.278;19.134;2024-03-22T06:03:38;39.00;33.50;21.00
69746;PMS7003;57018;50.278;19.134;2024-03-22T06:06:08;33.33;31.67;19.00
69746;PMS7003;57018;50.278;19.134;2024-03-22T06:08:40;32.00;25.00;18.00
69746;PMS7003;57018;50.278;19.134;2024-03-22T06:11:11;33.00;29.00;18.50
69746;PMS7003;57018;50.278;19.134;2024-03-22T06:13:41;45.00;37.00;25.00
69746;PMS7003;57018;50.278;19.134;2024-03-22T06:16:11;50.00;42.00;28.00
69746;PMS7003;57018;50.278;19.134;2024-03-22T06:18:41;51.00;39.33;26.67
69746;PMS7003;57018;50.278;19.134;2024-03-22T06:21:11;42.00;35.00;23.00
69746;PMS7003;57018;50.278;19.134;2024-03-22T06:23:42;31.00;28.00;21.00
69746;PMS7003;57018;50.278;19.134;2024-03-22T06:26:12;36.67;31.67;20.33
69746;PMS7003;57018;50.278;19.134;2024-03-22T06:28:42;32.50;29.50;19.50
69746;PMS7003;57018;50.278;19.134;2024-03-22T06:31:12;26.50;25.00;18.50
69746;PMS7003;57018;50.278;19.134;2024-03-22T06:33:42;31.00;29.00;19.00
69746;PMS7003;57018;50.278;19.134;2024-03-22T06:36:11;26.00;24.00;15.00
69746;PMS7003;57018;50.278;19.134;2024-03-22T06:38:41;26.00;23.00;15.00
69746;PMS7003;57018;50.278;19.134;2024-03-22T06:41:11;21.50;21.50;16.00
69746;PMS7003;57018;50.278;19.134;2024-03-22T06:43:42;29.00;26.00;18.00
69746;PMS7003;57018;50.278;19.134;2024-03-22T06:46:12;29.00;26.00;16.50
69746;PMS7003;57018;50.278;19.134;2024-03-22T06:48:42;24.50;22.00;15.00
69746;PMS7003;57018;50.278;19.134;2024-03-22T06:51:13;29.00;25.00;17.00
69746;PMS7003;57018;50.278;19.134;2024-03-22T06:53:43;31.50;27.50;18.00
69746;PMS7003;57018;50.278;19.134;2024-03-22T06:56:14;29.00;29.00;20.00
69746;PMS7003;57018;50.278;19.134;2024-03-22T06:58:44;28.00;25.00;18.00
69746;PMS7003;57018;50.278;19.134;2024-03-22T07:01:14;28.00;24.50;17.50
69746;PMS7003;57018;50.278;19.134;2024-03-22T07:03:44;37.00;34.50;23.00
69746;PMS7003;57018;50.278;19.134;2024-03-22T07:06:15;43.00;34.00;23.00
69746;PMS7003;57018;50.278;19.134;2024-03-22T07:08:47;37.00;33.00;20.00
69746;PMS7003;57018;50.278;19.134;2024-03-22T07:11:17;38.00;32.00;20.50
69746;PMS7003;57018;50.278;19.134;2024-03-22T07:13:47;34.50;33.00;21.00
69746;PMS7003;57018;50.278;19.134;2024-03-22T07:16:18;31.67;30.00;19.33
69746;PMS7003;57018;50.278;19.134;2024-03-22T07:18:48;38.67;34.00;21.33
69746;PMS7003;57018;50.278;19.134;2024-03-22T07:21:17;34.00;31.00;19.00
69746;PMS7003;57018;50.278;19.134;2024-03-22T07:23:48;36.00;30.00;18.00
69746;PMS7003;57018;50.278;19.134;2024-03-22T07:26:18;29.50;27.00;17.00
69746;PMS7003;57018;50.278;19.134;2024-03-22T07:28:48;27.50;24.50;16.00
69746;PMS7003;57018;50.278;19.134;2024-03-22T07:31:17;27.00;26.00;18.00
69746;PMS7003;57018;50.278;19.134;2024-03-22T07:33:49;34.50;29.75;19.00
69746;PMS7003;57018;50.278;19.134;2024-03-22T07:36:21;33.00;28.00;18.67
69746;PMS7003;57018;50.278;19.134;2024-03-22T07:38:51;34.00;32.50;21.50
69746;PMS7003;57018;50.278;19.134;2024-03-22T07:41:23;41.00;34.00;21.00
69746;PMS7003;57018;50.278;19.134;2024-03-22T07:43:53;41.50;35.00;23.00
69746;PMS7003;57018;50.278;19.134;2024-03-22T07:46:23;36.50;31.50;21.00
69746;PMS7003;57018;50.278;19.134;2024-03-22T07:48:53;40.33;35.67;23.33
69746;PMS7003;57018;50.278;19.134;2024-03-22T07:51:23;41.50;35.50;23.00
69746;PMS7003;57018;50.278;19.134;2024-03-22T07:53:53;45.00;34.00;23.00
69746;PMS7003;57018;50.278;19.134;2024-03-22T07:56:22;47.00;38.50;23.50
69746;PMS7003;57018;50.278;19.134;2024-03-22T07:58:57;53.00;41.67;25.33
69746;PMS7003;57018;50.278;19.134;2024-03-22T08:01:27;50.00;40.00;24.50
69746;PMS7003;57018;50.278;19.134;2024-03-22T08:03:58;47.00;35.00;24.00
69746;PMS7003;57018;50.278;19.134;2024-03-22T08:06:28;39.67;34.33;22.00
69746;PMS7003;57018;50.278;19.134;2024-03-22T08:08:58;36.00;32.00;20.00
69746;PMS7003;57018;50.278;19.134;2024-03-22T08:11:29;46.33;37.67;24.00
69746;PMS7003;57018;50.278;19.134;2024-03-22T08:13:59;47.50;38.00;22.50
69746;PMS7003;57018;50.278;19.134;2024-03-22T08:16:30;44.00;34.00;23.00
69746;PMS7003;57018;50.278;19.134;2024-03-22T08:19:00;52.00;41.00;27.00
69746;PMS7003;57018;50.278;19.134;2024-03-22T08:21:30;49.00;37.00;24.00
69746;PMS7003;57018;50.278;19.134;2024-03-22T08:24:01;48.00;41.00;25.00
69746;PMS7003;57018;50.278;19.134;2024-03-22T08:26:31;52.00;41.00;26.67
69746;PMS7003;57018;50.278;19.134;2024-03-22T08:29:01;51.00;40.00;26.00
69746;PMS7003;57018;50.278;19.134;2024-03-22T08:31:31;52.50;39.50;24.00
69746;PMS7003;57018;50.278;19.134;2024-03-22T08:34:01;46.00;37.00;22.00
69746;PMS7003;57018;50.278;19.134;2024-03-22T08:36:32;51.00;39.67;23.67
69746;PMS7003;57018;50.278;19.134;2024-03-22T08:39:03;46.00;37.00;24.00
69746;PMS7003;57018;50.278;19.134;2024-03-22T08:41:37;52.00;41.00;26.00
69746;PMS7003;57018;50.278;19.134;2024-03-22T08:44:06;42.00;37.00;21.50
69746;PMS7003;57018;50.278;19.134;2024-03-22T08:46:38;37.50;34.00;19.50
69746;PMS7003;57018;50.278;19.134;2024-03-22T08:49:08;36.00;32.00;20.00
69746;PMS7003;57018;50.278;19.134;2024-03-22T08:51:39;42.00;33.67;20.33
69746;PMS7003;57018;50.278;19.134;2024-03-22T08:54:09;46.00;36.00;21.50
69746;PMS7003;57018;50.278;19.134;2024-03-22T08:56:40;34.50;32.00;21.50
69746;PMS7003;57018;50.278;19.134;2024-03-22T08:59:10;29.00;26.50;18.50
69746;PMS7003;57018;50.278;19.134;2024-03-22T09:01:40;42.00;35.00;22.00
69746;PMS7003;57018;50.278;19.134;2024-03-22T09:04:12;39.00;31.00;20.00
69746;PMS7003;57018;50.278;19.134;2024-03-22T09:06:42;30.67;28.00;18.67
69746;PMS7003;57018;50.278;19.134;2024-03-22T09:09:16;37.00;33.00;19.00
69746;PMS7003;57018;50.278;19.134;2024-03-22T09:11:46;33.33;30.00;16.00
69746;PMS7003;57018;50.278;19.134;2024-03-22T09:14:16;39.50;33.50;20.00
69746;PMS7003;57018;50.278;19.134;2024-03-22T09:16:46;41.00;34.00;20.00
69746;PMS7003;57018;50.278;19.134;2024-03-22T09:19:16;29.50;29.50;18.00
69746;PMS7003;57018;50.278;19.134;2024-03-22T09:21:46;32.75;31.50;19.50
69746;PMS7003;57018;50.278;19.134;2024-03-22T09:24:16;38.00;31.00;20.50
69746;PMS7003;57018;50.278;19.134;2024-03-22T09:26:47;34.50;32.50;20.00
69746;PMS7003;57018;50.278;19.134;2024-03-22T09:29:16;42.00;34.00;21.50
69746;PMS7003;57018;50.278;19.134;2024-03-22T09:31:46;35.50;32.00;20.00
69746;PMS7003;57018;50.278;19.134;2024-03-22T09:34:17;38.33;33.67;21.00
69746;PMS7003;57018;50.278;19.134;2024-03-22T09:36:47;38.00;32.50;20.00
69746;PMS7003;57018;50.278;19.134;2024-03-22T09:39:17;32.00;29.00;19.00
69746;PMS7003;57018;50.278;19.134;2024-03-22T09:41:47;36.67;30.33;20.00
69746;PMS7003;57018;50.278;19.134;2024-03-22T09:44:18;30.00;29.00;16.50
69746;PMS7003;57018;50.278;19.134;2024-03-22T09:46:50;43.00;33.00;21.00
69746;PMS7003;57018;50.278;19.134;2024-03-22T09:49:20;35.00;32.00;20.00
69746;PMS7003;57018;50.278;19.134;2024-03-22T09:51:51;49.00;41.00;24.00
69746;PMS7003;57018;50.278;19.134;2024-03-22T09:54:23;47.50;38.00;23.00
69746;PMS7003;57018;50.278;19.134;2024-03-22T09:56:54;40.00;35.00;22.50
69746;PMS7003;57018;50.278;19.134;2024-03-22T09:59:25;37.00;31.00;19.00
69746;PMS7003;57018;50.278;19.134;2024-03-22T10:01:55;35.00;30.00;18.00
69746;PMS7003;57018;50.278;19.134;2024-03-22T10:04:27;38.00;32.00;20.00
69746;PMS7003;57018;50.278;19.134;2024-03-22T10:06:57;45.00;36.50;21.50
69746;PMS7003;57018;50.278;19.134;2024-03-22T10:09:30;43.00;36.00;21.00
69746;PMS7003;57018;50.278;19.134;2024-03-22T10:12:00;44.00;37.00;22.00
69746;PMS7003;57018;50.278;19.134;2024-03-22T10:14:31;54.50;43.50;25.50
69746;PMS7003;57018;50.278;19.134;2024-03-22T10:17:02;53.00;45.00;29.00
69746;PMS7003;57018;50.278;19.134;2024-03-22T10:19:32;59.00;47.00;30.00
69746;PMS7003;57018;50.278;19.134;2024-03-22T10:22:02;56.00;46.00;29.50
69746;PMS7003;57018;50.278;19.134;2024-03-22T10:24:33;49.00;41.00;24.00
69746;PMS7003;57018;50.278;19.134;2024-03-22T10:27:03;47.00;41.00;26.00
69746;PMS7003;57018;50.278;19.134;2024-03-22T10:29:33;39.00;36.00;21.00
69746;PMS7003;57018;50.278;19.134;2024-03-22T10:32:04;47.00;41.50;26.00
69746;PMS7003;57018;50.278;19.134;2024-03-22T10:34:34;49.50;36.50;23.50
69746;PMS7003;57018;50.278;19.134;2024-03-22T10:37:06;46.50;39.50;26.00
69746;PMS7003;57018;50.278;19.134;2024-03-22T10:39:38;54.00;45.00;26.00
69746;PMS7003;57018;50.278;19.134;2024-03-22T10:42:10;48.00;39.50;25.00
69746;PMS7003;57018;50.278;19.134;2024-03-22T10:44:41;38.00;34.00;22.00
69746;PMS7003;57018;50.278;19.134;2024-03-22T10:47:11;32.00;29.00;18.00
69746;PMS7003;57018;50.278;19.134;2024-03-22T10:49:44;24.00;24.00;16.50
69746;PMS7003;57018;50.278;19.134;2024-03-22T10:52:16;31.00;29.50;17.50
69746;PMS7003;57018;50.278;19.134;2024-03-22T10:54:48;25.00;19.67;13.67
69746;PMS7003;57018;50.278;19.134;2024-03-22T10:57:18;23.00;21.00;13.00
69746;PMS7003;57018;50.278;19.134;2024-03-22T10:59:48;23.50;21.50;13.00
69746;PMS7003;57018;50.278;19.134;2024-03-22T11:02:24;20.00;18.00;10.00
69746;PMS7003;57018;50.278;19.134;2024-03-22T11:04:57;24.50;20.50;12.00
69746;PMS7003;57018;50.278;19.134;2024-03-22T11:07:29;16.50;16.00;10.00
69746;PMS7003;57018;50.278;19.134;2024-03-22T11:10:01;24.50;21.50;14.00
69746;PMS7003;57018;50.278;19.134;2024-03-22T11:12:33;24.00;24.00;13.00
69746;PMS7003;57018;50.278;19.134;2024-03-22T11:15:07;23.50;19.50;14.00
69746;PMS7003;57018;50.278;19.134;2024-03-22T11:17:39;21.50;17.50;11.50
69746;PMS7003;57018;50.278;19.134;2024-03-22T11:20:11;21.00;18.00;12.00
69746;PMS7003;57018;50.278;19.134;2024-03-22T11:22:42;14.00;14.00;9.00
69746;PMS7003;57018;50.278;19.134;2024-03-22T11:25:12;14.50;13.50;9.00
69746;PMS7003;57018;50.278;19.134;2024-03-22T11:27:42;19.00;17.50;11.50
69746;PMS7003;57018;50.278;19.134;2024-03-22T11:30:12;14.00;14.00;10.50
69746;PMS7003;57018;50.278;19.134;2024-03-22T11:32:43;19.00;19.00;16.00
69746;PMS7003;57018;50.278;19.134;2024-03-22T11:35:13;22.00;17.50;12.00
69746;PMS7003;57018;50.278;19.134;2024-03-22T11:37:43;24.00;22.00;16.00
69746;PMS7003;57018;50.278;19.134;2024-03-22T11:40:13;20.50;18.00;12.50
69746;PMS7003;57018;50.278;19.134;2024-03-22T11:42:43;20.50;18.00;12.00
69746;PMS7003;57018;50.278;19.134;2024-03-22T11:45:19;17.00;17.00;10.00
69746;PMS7003;57018;50.278;19.134;2024-03-22T11:47:49;20.00;19.00;12.33
69746;PMS7003;57018;50.278;19.134;2024-03-22T11:50:19;16.50;15.50;11.00
69746;PMS7003;57018;50.278;19.134;2024-03-22T11:52:49;18.50;15.50;11.50
69746;PMS7003;57018;50.278;19.134;2024-03-22T11:55:20;14.00;14.00;10.00
69746;PMS7003;57018;50.278;19.134;2024-03-22T11:57:50;17.75;17.00;11.25
69746;PMS7003;57018;50.278;19.134;2024-03-22T12:00:20;21.00;18.00;11.00
69746;PMS7003;57018;50.278;19.134;2024-03-22T12:02:52;19.00;16.50;12.00
69746;PMS7003;57018;50.278;19.134;2024-03-22T12:05:22;23.67;19.67;12.00
69746;PMS7003;57018;50.278;19.134;2024-03-22T12:07:53;19.00;18.00;11.00
69746;PMS7003;57018;50.278;19.134;2024-03-22T12:10:23;17.50;17.50;11.00
69746;PMS7003;57018;50.278;19.134;2024-03-22T12:12:53;18.50;18.50;13.00
69746;PMS7003;57018;50.278;19.134;2024-03-22T12:15:23;23.00;21.00;15.00
69746;PMS7003;57018;50.278;19.134;2024-03-22T12:17:53;22.00;22.00;16.00
69746;PMS7003;57018;50.278;19.134;2024-03-22T12:20:23;19.33;19.33;15.33
69746;PMS7003;57018;50.278;19.134;2024-03-22T12:22:54;24.67;22.33;15.67
69746;PMS7003;57018;50.278;19.134;2024-03-22T12:25:24;27.00;24.00;14.00
69746;PMS7003;57018;50.278;19.134;2024-03-22T12:27:53;27.00;24.00;16.00
69746;PMS7003;57018;50.278;19.134;2024-03-22T12:30:23;29.00;24.00;18.00
69746;PMS7003;57018;50.278;19.134;2024-03-22T12:32:54;24.00;24.00;13.00
69746;PMS7003;57018;50.278;19.134;2024-03-22T12:35:24;28.00;24.00;16.00
69746;PMS7003;57018;50.278;19.134;2024-03-22T12:37:54;24.00;22.50;17.00
69746;PMS7003;57018;50.278;19.134;2024-03-22T12:40:24;28.00;26.00;19.00
69746;PMS7003;57018;50.278;19.134;2024-03-22T12:42:54;26.00;22.50;16.00
69746;PMS7003;57018;50.278;19.134;2024-03-22T12:45:25;28.00;24.50;15.50
69746;PMS7003;57018;50.278;19.134;2024-03-22T12:47:55;28.00;24.50;15.50
69746;PMS7003;57018;50.278;19.134;2024-03-22T12:50:24;22.00;22.00;14.00
69746;PMS7003;57018;50.278;19.134;2024-03-22T12:52:55;23.00;23.00;15.00
69746;PMS7003;57018;50.278;19.134;2024-03-22T12:55:25;29.00;26.00;18.00
69746;PMS7003;57018;50.278;19.134;2024-03-22T12:57:57;25.00;22.50;14.50
69746;PMS7003;57018;50.278;19.134;2024-03-22T13:00:27;28.00;24.00;15.00
69746;PMS7003;57018;50.278;19.134;2024-03-22T13:02:57;24.00;24.00;16.00
69746;PMS7003;57018;50.278;19.134;2024-03-22T13:05:27;24.00;21.50;13.50
69746;PMS7003;57018;50.278;19.134;2024-03-22T13:07:58;28.00;22.67;14.33
69746;PMS7003;57018;50.278;19.134;2024-03-22T13:10:27;24.50;23.00;17.00
69746;PMS7003;57018;50.278;19.134;2024-03-22T13:13:00;31.00;30.50;18.50
69746;PMS7003;57018;50.278;19.134;2024-03-22T13:15:30;33.00;28.00;17.50
69746;PMS7003;57018;50.278;19.134;2024-03-22T13:18:02;27.00;26.00;15.00
69746;PMS7003;57018;50.278;19.134;2024-03-22T13:20:32;31.50;30.00;21.50
69746;PMS7003;57018;50.278;19.134;2024-03-22T13:23:03;30.00;27.00;18.00
69746;PMS7003;57018;50.278;19.134;2024-03-22T13:25:36;31.00;28.00;20.00
69746;PMS7003;57018;50.278;19.134;2024-03-22T13:28:05;33.00;27.50;18.00
69746;PMS7003;57018;50.278;19.134;2024-03-22T13:30:36;27.00;26.00;19.00
69746;PMS7003;57018;50.278;19.134;2024-03-22T13:33:06;30.50;28.50;18.00
69746;PMS7003;57018;50.278;19.134;2024-03-22T13:35:36;29.00;24.00;18.00
69746;PMS7003;57018;50.278;19.134;2024-03-22T13:38:08;29.50;29.00;19.50
69746;PMS7003;57018;50.278;19.134;2024-03-22T13:40:40;26.67;24.00;17.33
69746;PMS7003;57018;50.278;19.134;2024-03-22T13:43:11;26.00;25.00;18.00
69746;PMS7003;57018;50.278;19.134;2024-03-22T13:45:41;26.50;25.50;19.00
69746;PMS7003;57018;50.278;19.134;2024-03-22T13:48:12;32.00;29.00;21.00
69746;PMS7003;57018;50.278;19.134;2024-03-22T13:50:42;31.50;26.00;17.00
69746;PMS7003;57018;50.278;19.134;2024-03-22T13:53:14;30.50;29.50;17.50
69746;PMS7003;57018;50.278;19.134;2024-03-22T13:55:44;34.50;29.50;18.50
69746;PMS7003;57018;50.278;19.134;2024-03-22T13:58:14;27.67;27.67;18.67
69746;PMS7003;57018;50.278;19.134;2024-03-22T14:00:45;31.00;28.50;18.50